Time;durP1;ratioP1;P1;durP2;ratioP2;P2;SDS_P1;SDS_P2;PMS_P1;PMS_P2;Temp;Humidity;BMP_temperature;BMP_pressure;BME280_temperature;BME280_humidity;BME280_pressure;Samples;Min_cycle;Max_cycle;Signal;HPM_P1;HPM_P2
2021/11/09 00:01:37;;;;;;;14.52;7.43;;;;;;;-149.78;100.00;50342.38;5069163;28;20028;-65
2021/11/09 00:04:06;;;;;;;13.93;7.40;;;;;;;-149.78;100.00;50365.84;5063915;28;20079;-65
2021/11/09 00:06:38;;;;;;;14.85;7.38;;;;;;;-149.78;100.00;50373.66;5068535;28;20082;-65
2021/11/09 00:09:10;;;;;;;16.13;7.78;;;;;;;-149.78;100.00;50369.75;5059814;28;20535;-65
2021/11/09 00:11:36;;;;;;;13.75;6.75;;;;;;;-149.78;100.00;50424.50;5060027;28;20036;-65
2021/11/09 00:14:02;;;;;;;13.13;7.20;;;;;;;-149.78;100.00;50342.38;5059673;28;20032;-62
2021/11/09 00:16:30;;;;;;;12.13;6.80;;;;;;;-149.78;100.00;50373.66;5065471;28;20108;-62
2021/11/09 00:18:57;;;;;;;11.48;6.50;;;;;;;-149.78;100.00;50350.19;5061858;28;20029;-62
2021/11/09 00:21:23;;;;;;;13.68;6.55;;;;;;;-149.78;100.00;50391.25;5069940;28;20464;-62
2021/11/09 00:23:48;;;;;;;14.00;6.82;;;;;;;-149.78;100.00;50389.31;5071352;28;20042;-62
2021/11/09 00:26:15;;;;;;;11.05;6.38;;;;;;;-149.78;100.00;50377.56;5056516;28;20045;-62
2021/11/09 00:28:40;;;;;;;10.98;6.25;;;;;;;-149.78;100.00;50379.53;5072647;28;20037;-62
2021/11/09 00:31:06;;;;;;;9.38;5.50;;;;;;;-149.78;100.00;50377.56;5072859;28;20048;-62
2021/11/09 00:33:32;;;;;;;9.65;5.50;;;;;;;-149.78;100.00;50369.75;5057244;28;20041;-62
2021/11/09 00:35:58;;;;;;;9.80;5.03;;;;;;;-149.78;100.00;50385.38;5070873;28;20028;-62
2021/11/09 00:38:23;;;;;;;13.02;5.57;;;;;;;-149.78;100.00;50397.13;5055513;28;20400;-62
2021/11/09 00:40:49;;;;;;;8.38;5.20;;;;;;;-149.78;100.00;50354.09;5069375;28;20064;-62
2021/11/09 00:43:17;;;;;;;10.15;4.70;;;;;;;-149.78;100.00;50401.03;5066889;28;20426;-62
2021/11/09 00:45:43;;;;;;;8.73;4.63;;;;;;;-149.78;100.00;50369.75;5067270;28;20116;-62
2021/11/09 00:48:10;;;;;;;8.23;4.60;;;;;;;-149.78;100.00;50342.38;5072386;28;20067;-62
2021/11/09 00:50:36;;;;;;;13.50;5.20;;;;;;;-149.78;100.00;50381.47;5056565;28;20028;-62
2021/11/09 00:53:03;;;;;;;9.32;4.38;;;;;;;-149.78;100.00;50383.44;5071743;28;20064;-62
2021/11/09 00:55:28;;;;;;;5.30;3.40;;;;;;;-149.78;100.00;50377.56;5067897;28;20055;-62
2021/11/09 00:57:54;;;;;;;8.48;4.00;;;;;;;-149.78;100.00;50397.13;5060668;28;20032;-62
2021/11/09 01:00:24;;;;;;;7.95;3.42;;;;;;;-149.78;100.00;50377.56;5067780;28;20071;-62
2021/11/09 01:02:50;;;;;;;6.25;3.33;;;;;;;-149.78;100.00;50377.56;5063864;28;20054;-62
2021/11/09 01:05:23;;;;;;;7.90;3.22;;;;;;;-149.78;100.00;50389.31;5067443;28;20410;-62
2021/11/09 01:07:58;;;;;;;6.93;3.60;;;;;;;-149.78;100.00;50342.38;5066840;28;20116;-62
2021/11/09 01:10:28;;;;;;;7.32;3.55;;;;;;;-149.78;100.00;50381.47;5064700;28;20113;-63
2021/11/09 01:12:54;;;;;;;6.60;3.90;;;;;;;-149.78;100.00;50412.78;5052624;28;20032;-62
2021/11/09 01:15:21;;;;;;;5.53;3.50;;;;;;;-149.78;100.00;50381.47;5070143;28;20032;-62
2021/11/09 01:17:47;;;;;;;5.93;3.65;;;;;;;-149.78;100.00;50338.44;5063291;28;20033;-62
2021/11/09 01:20:16;;;;;;;5.18;3.45;;;;;;;-149.78;100.00;50373.66;5060371;28;20068;-62
2021/11/09 01:22:45;;;;;;;6.95;4.00;;;;;;;-149.78;100.00;50408.84;5058760;28;20415;-62
2021/11/09 01:25:11;;;;;;;9.10;4.07;;;;;;;-149.78;100.00;50369.75;5068341;28;20047;-63
2021/11/09 01:27:36;;;;;;;8.70;4.53;;;;;;;-149.78;100.00;50363.88;5063153;28;20037;-62
2021/11/09 01:30:05;;;;;;;6.32;4.07;;;;;;;-149.78;100.00;50340.41;5066351;28;20037;-62
2021/11/09 01:32:31;;;;;;;6.93;4.28;;;;;;;-149.78;100.00;50404.94;5065073;28;20032;-62
2021/11/09 01:34:58;;;;;;;9.05;4.50;;;;;;;-149.78;100.00;50365.84;5064885;28;20029;-62
2021/11/09 01:37:23;;;;;;;10.35;4.53;;;;;;;-149.78;100.00;50373.66;5054205;28;20044;-62
2021/11/09 01:39:50;;;;;;;7.22;4.40;;;;;;;-149.78;100.00;50397.13;5053895;28;20037;-62
2021/11/09 01:42:15;;;;;;;7.07;4.20;;;;;;;-149.78;100.00;50383.44;5057881;28;20063;-62
2021/11/09 01:44:41;;;;;;;10.30;4.88;;;;;;;-149.78;100.00;50395.16;5069245;28;20044;-62
2021/11/09 01:47:07;;;;;;;8.77;4.28;;;;;;;-149.78;100.00;50375.63;5058786;28;20080;-62
2021/11/09 01:49:33;;;;;;;6.82;3.88;;;;;;;-149.78;100.00;50412.78;5070331;28;20040;-62
2021/11/09 01:51:59;;;;;;;6.85;3.78;;;;;;;-149.78;100.00;50393.22;5058128;28;20098;-62
2021/11/09 01:54:24;;;;;;;7.63;3.85;;;;;;;-149.78;100.00;50365.84;5069163;28;20146;-62
2021/11/09 01:56:50;;;;;;;11.40;4.47;;;;;;;-149.78;100.00;50358.00;5059589;28;20032;-62
2021/11/09 01:59:16;;;;;;;7.28;3.78;;;;;;;-149.78;100.00;50385.38;5065973;28;20044;-62
2021/11/09 02:01:42;;;;;;;11.15;4.93;;;;;;;-149.78;100.00;50381.47;5061220;28;20037;-62
2021/11/09 02:04:08;;;;;;;9.40;4.30;;;;;;;-149.78;100.00;50361.91;5063971;28;20116;-62
2021/11/09 02:06:34;;;;;;;9.77;4.18;;;;;;;-149.78;100.00;50381.47;5063665;28;20182;-62
2021/11/09 02:09:07;;;;;;;8.82;3.45;;;;;;;-149.78;100.00;50338.44;5067387;28;20504;-62
2021/11/09 02:11:33;;;;;;;5.28;3.08;;;;;;;-149.78;100.00;50338.44;5057925;28;20029;-62
2021/11/09 02:13:59;;;;;;;13.85;4.05;;;;;;;-149.78;100.00;50385.38;5065970;28;20043;-62
2021/11/09 02:16:25;;;;;;;5.05;2.83;;;;;;;-149.78;100.00;50397.13;5064812;28;20044;-62
2021/11/09 02:18:51;;;;;;;7.30;3.47;;;;;;;-149.78;100.00;50365.84;5064427;28;20036;-62
2021/11/09 02:21:18;;;;;;;4.57;2.85;;;;;;;-149.78;100.00;50381.47;5070172;28;20032;-62
2021/11/09 02:23:46;;;;;;;5.13;2.97;;;;;;;-149.78;100.00;50375.63;5067886;28;20353;-62
2021/11/09 02:26:16;;;;;;;6.32;2.70;;;;;;;-149.78;100.00;50377.56;5069366;28;20417;-62
2021/11/09 02:28:43;;;;;;;6.82;2.65;;;;;;;-149.78;100.00;50346.28;5059424;28;20420;-62
2021/11/09 02:31:09;;;;;;;7.20;2.38;;;;;;;-149.78;100.00;50350.19;5060495;28;20048;-62
2021/11/09 02:33:36;;;;;;;6.00;2.55;;;;;;;-149.78;100.00;50401.03;5073108;28;20064;-62
2021/11/09 02:36:03;;;;;;;5.75;2.50;;;;;;;-149.78;100.00;50377.56;5069559;28;20075;-62
2021/11/09 02:38:29;;;;;;;5.93;2.50;;;;;;;-149.78;100.00;50385.38;5061631;28;20472;-62
2021/11/09 02:40:56;;;;;;;5.22;2.13;;;;;;;-149.78;100.00;50397.13;5059487;28;20047;-62
2021/11/09 02:43:23;;;;;;;5.10;2.22;;;;;;;-149.78;100.00;50358.00;5068029;28;20396;-62
2021/11/09 02:48:32;;;;;;;6.07;2.42;;;;;;;-149.78;100.00;50377.56;5065303;28;20460;-62
2021/11/09 02:51:12;;;;;;;6.50;2.55;;;;;;;-149.78;100.00;50385.38;5066079;28;20032;-62
2021/11/09 02:53:42;;;;;;;7.35;2.65;;;;;;;-149.78;100.00;50346.28;5060610;28;20119;-62
2021/11/09 03:01:35;;;;;;;6.63;2.42;;;;;;;-149.78;100.00;50377.56;5073765;28;20036;-62
2021/11/09 03:11:29;;;;;;;7.28;2.70;;;;;;;-149.78;100.00;50373.66;5063429;28;20111;-65
2021/11/09 03:13:56;;;;;;;6.05;2.83;;;;;;;-149.78;100.00;50330.63;5071895;28;20536;-65
2021/11/09 03:16:23;;;;;;;5.70;2.40;;;;;;;-149.78;100.00;50373.66;5058908;28;20059;-65
2021/11/09 03:19:20;;;;;;;8.00;2.78;;;;;;;-149.78;100.00;50369.75;5053242;28;20047;-65
2021/11/09 03:44:15;;;;;;;7.72;2.80;;;;;;;-149.78;100.00;50391.25;5065277;28;20036;-65
2021/11/09 03:46:29;;;;;;;6.10;2.83;;;;;;;-149.78;100.00;50354.09;5065356;28;20041;-65
2021/11/09 03:48:55;;;;;;;5.25;2.97;;;;;;;-149.78;100.00;50375.63;5065974;28;20064;-65
2021/11/09 03:51:21;;;;;;;7.00;3.60;;;;;;;-149.78;100.00;50377.56;5034929;28;20033;-65
2021/11/09 03:53:47;;;;;;;9.13;2.88;;;;;;;-149.78;100.00;50358.00;5041205;28;20029;-65
2021/11/09 03:56:27;;;;;;;7.68;3.15;;;;;;;-149.78;100.00;50387.34;5055436;28;20117;-65
2021/11/09 03:58:54;;;;;;;9.85;3.25;;;;;;;-149.78;100.00;50393.22;5060780;28;20090;-65
2021/11/09 04:01:22;;;;;;;8.30;3.20;;;;;;;-149.78;100.00;50385.38;5053014;28;20032;-65
2021/11/09 04:04:02;;;;;;;6.95;2.88;;;;;;;-149.78;100.00;50397.13;5061584;28;20069;-65
2021/11/09 04:06:40;;;;;;;6.20;2.90;;;;;;;-149.78;100.00;50346.28;5064938;28;20037;-65
2021/11/09 04:09:21;;;;;;;5.90;2.90;;;;;;;-149.78;100.00;50404.94;5063991;28;20040;-65
2021/11/09 04:12:05;;;;;;;9.38;3.30;;;;;;;-149.78;100.00;50420.59;5052558;28;20029;-65
2021/11/09 04:14:38;;;;;;;5.93;3.25;;;;;;;-149.78;100.00;50375.63;5053361;28;20067;-65
2021/11/09 04:17:11;;;;;;;8.98;2.70;;;;;;;-149.78;100.00;50414.72;5059161;28;20086;-65
2021/11/09 04:19:49;;;;;;;6.35;2.72;;;;;;;-149.78;100.00;50369.75;5065340;28;20083;-65
2021/11/09 05:02:51;;;;;;;7.40;2.83;;;;;;;-149.78;100.00;50397.13;5062153;28;20076;-65
2021/11/09 05:10:58;;;;;;;7.68;2.25;;;;;;;-149.78;100.00;50424.50;5047275;28;20411;-65
2021/11/09 05:13:25;;;;;;;7.63;2.35;;;;;;;-149.78;100.00;50401.03;5062890;28;20366;-65
2021/11/09 05:15:52;;;;;;;5.22;2.28;;;;;;;-149.78;100.00;50420.59;5063256;28;20444;-65
2021/11/09 05:18:18;;;;;;;8.45;2.60;;;;;;;-149.78;100.00;50440.16;5064612;28;20438;-65
2021/11/09 05:20:44;;;;;;;9.05;2.50;;;;;;;-149.78;100.00;50432.31;5060210;28;20425;-65
2021/11/09 05:23:10;;;;;;;7.50;2.30;;;;;;;-149.78;100.00;50416.69;5058127;28;20037;-65
2021/11/09 05:25:35;;;;;;;8.15;2.40;;;;;;;-149.78;100.00;50420.59;5059197;28;20110;-65
2021/11/09 05:28:02;;;;;;;9.18;2.42;;;;;;;-149.78;100.00;50416.69;5059355;28;20369;-65
2021/11/09 05:30:27;;;;;;;6.75;2.45;;;;;;;-149.78;100.00;50412.78;5061887;28;20041;-65
2021/11/09 05:32:58;;;;;;;8.73;2.70;;;;;;;-149.78;100.00;50397.13;5065397;28;20036;-65
2021/11/09 05:35:24;;;;;;;7.53;2.70;;;;;;;-149.78;100.00;50426.47;5069140;28;20116;-65
2021/11/09 05:37:51;;;;;;;5.85;2.20;;;;;;;-149.78;100.00;50444.06;5054157;28;20128;-65
2021/11/09 05:40:19;;;;;;;8.20;2.50;;;;;;;-149.78;100.00;50430.38;5068249;28;20055;-65
2021/11/09 05:42:45;;;;;;;4.82;2.03;;;;;;;-149.78;100.00;50401.03;5070331;28;20420;-65
2021/11/09 05:45:17;;;;;;;7.25;2.55;;;;;;;-149.78;100.00;50434.28;5072988;28;20093;-65
2021/11/09 05:47:42;;;;;;;6.15;2.08;;;;;;;-149.78;100.00;50416.69;5056346;28;20037;-65
2021/11/09 05:50:09;;;;;;;9.45;2.42;;;;;;;-149.78;100.00;50404.94;5056245;28;20029;-65
2021/11/09 05:52:36;;;;;;;8.10;2.47;;;;;;;-149.78;100.00;50447.97;5065688;28;20476;-64
2021/11/09 05:55:03;;;;;;;6.03;2.05;;;;;;;-149.78;100.00;50455.81;5056830;28;20054;-65
2021/11/09 05:57:29;;;;;;;6.03;2.17;;;;;;;-149.78;100.00;50428.41;5056271;28;20041;-65
2021/11/09 05:59:55;;;;;;;10.23;2.60;;;;;;;-149.78;100.00;50436.25;5057219;28;20055;-65
2021/11/09 06:02:21;;;;;;;11.20;2.63;;;;;;;-149.78;100.00;50467.53;5064502;28;20055;-65
2021/11/09 06:04:50;;;;;;;7.13;2.40;;;;;;;-149.78;100.00;50408.84;5063778;28;20159;-65
2021/11/09 06:07:17;;;;;;;7.85;2.28;;;;;;;-149.78;100.00;50401.03;5065633;28;20040;-65
2021/11/09 06:09:42;;;;;;;6.13;2.00;;;;;;;-149.78;100.00;50416.69;5061339;28;20048;-65
2021/11/09 06:12:08;;;;;;;2.88;1.88;;;;;;;-149.78;100.00;50420.59;5063642;28;20041;-65
2021/11/09 06:14:34;;;;;;;7.20;2.10;;;;;;;-149.78;100.00;50416.69;5063788;28;20041;-65
2021/11/09 06:16:59;;;;;;;6.05;1.98;;;;;;;-149.78;100.00;50412.78;5061485;28;20037;-65
2021/11/09 06:19:25;;;;;;;6.82;2.20;;;;;;;-149.78;100.00;50418.63;5059558;28;20032;-65
2021/11/09 06:21:52;;;;;;;7.70;2.40;;;;;;;-149.78;100.00;50416.69;5062478;28;20037;-65
2021/11/09 06:24:18;;;;;;;8.68;2.53;;;;;;;-149.78;100.00;50420.59;5060215;28;20036;-65
2021/11/09 06:26:45;;;;;;;7.97;2.05;;;;;;;-149.78;100.00;50428.41;5064449;28;20049;-65
2021/11/09 06:29:12;;;;;;;4.38;2.13;;;;;;;-149.78;100.00;50397.13;5069153;28;20471;-65
2021/11/09 06:31:39;;;;;;;6.80;1.95;;;;;;;-149.78;100.00;50422.56;5070526;28;20036;-65
2021/11/09 06:34:04;;;;;;;7.40;2.28;;;;;;;-149.78;100.00;50406.91;5070850;28;20469;-65
2021/11/09 06:36:30;;;;;;;5.93;1.70;;;;;;;-149.78;100.00;50416.69;5068279;28;20040;-65
2021/11/09 06:38:56;;;;;;;6.50;2.20;;;;;;;-149.78;100.00;50385.38;5071521;28;20040;-65
2021/11/09 06:41:21;;;;;;;5.55;1.80;;;;;;;-149.78;100.00;50371.69;5068341;28;20045;-65
2021/11/09 06:43:47;;;;;;;5.25;2.03;;;;;;;-149.78;100.00;50397.13;5070079;28;20041;-65
2021/11/09 06:46:13;;;;;;;6.05;1.77;;;;;;;-149.78;100.00;50391.25;5067371;28;20052;-65
2021/11/09 06:48:40;;;;;;;4.53;1.95;;;;;;;-149.78;100.00;50408.84;5067569;28;20036;-65
2021/11/09 06:51:06;;;;;;;6.22;1.90;;;;;;;-149.78;100.00;50451.88;5066981;28;20039;-65
2021/11/09 06:53:32;;;;;;;5.10;1.95;;;;;;;-149.78;100.00;50432.31;5069229;28;20036;-65
2021/11/09 06:55:57;;;;;;;7.07;2.08;;;;;;;-149.78;100.00;50397.13;5068438;28;20037;-65
2021/11/09 06:58:24;;;;;;;5.35;1.80;;;;;;;-149.78;100.00;50436.25;5066598;28;20059;-65
2021/11/09 07:00:49;;;;;;;6.57;1.85;;;;;;;-149.78;100.00;50391.25;5068098;28;20433;-64
2021/11/09 07:03:16;;;;;;;6.70;2.15;;;;;;;-149.78;100.00;50399.09;5067484;28;20040;-65
2021/11/09 07:05:41;;;;;;;10.48;2.45;;;;;;;-149.78;100.00;50416.69;5067696;28;20170;-65
2021/11/09 07:08:07;;;;;;;6.03;1.92;;;;;;;-149.78;100.00;50418.63;5071165;28;20103;-64
2021/11/09 07:10:33;;;;;;;4.50;2.35;;;;;;;-149.78;100.00;50358.00;5070610;28;20043;-64
2021/11/09 07:12:59;;;;;;;6.75;1.80;;;;;;;-149.78;100.00;50381.47;5066583;28;20032;-65
2021/11/09 07:15:24;;;;;;;8.05;2.08;;;;;;;-149.78;100.00;50397.13;5066634;28;20387;-64
2021/11/09 07:17:50;;;;;;;7.15;1.75;;;;;;;-149.78;100.00;50404.94;5069793;28;20387;-69
2021/11/09 07:20:19;;;;;;;4.97;2.08;;;;;;;-149.78;100.00;50404.94;5064734;28;20036;-67
2021/11/09 07:22:47;;;;;;;6.15;1.88;;;;;;;-149.78;100.00;50397.13;5068184;28;20039;-65
2021/11/09 07:25:13;;;;;;;6.78;1.95;;;;;;;-149.78;100.00;50397.13;5066616;28;20032;-64
2021/11/09 07:27:41;;;;;;;8.68;3.90;;;;;;;-149.78;100.00;50373.66;5065751;28;20091;-65
2021/11/09 07:30:08;;;;;;;6.03;2.00;;;;;;;-149.78;100.00;50367.78;5068296;28;21749;-65
2021/11/09 07:32:35;;;;;;;6.63;2.15;;;;;;;-149.78;100.00;50401.03;5060168;28;20036;-65
2021/11/09 07:35:01;;;;;;;7.40;2.17;;;;;;;-149.78;100.00;50383.44;5068285;28;20511;-65
2021/11/09 07:37:28;;;;;;;5.05;2.15;;;;;;;-149.78;100.00;50385.38;5066374;28;20032;-65
2021/11/09 07:39:54;;;;;;;7.65;1.80;;;;;;;-149.78;100.00;50373.66;5066605;28;20035;-65
2021/11/09 07:42:19;;;;;;;3.60;1.80;;;;;;;-149.78;100.00;50385.38;5065575;28;20028;-65
2021/11/09 07:44:47;;;;;;;7.18;2.05;;;;;;;-149.78;100.00;50377.56;5069251;28;20062;-64
2021/11/09 07:47:13;;;;;;;8.25;1.80;;;;;;;-149.78;100.00;50436.25;5063034;28;20121;-65
2021/11/09 07:49:39;;;;;;;4.28;2.22;;;;;;;-149.78;100.00;50412.78;5064936;28;20492;-65
2021/11/09 07:52:06;;;;;;;8.15;1.85;;;;;;;-149.78;100.00;50408.84;5061540;28;20040;-64
2021/11/09 07:54:37;;;;;;;6.30;2.05;;;;;;;-149.78;100.00;50420.59;5058742;28;20033;-66
2021/11/09 07:57:11;;;;;;;4.72;1.90;;;;;;;-149.78;100.00;50412.78;5058459;28;20032;-63
2021/11/09 07:59:53;;;;;;;8.10;1.92;;;;;;;-149.78;100.00;50369.75;5070808;28;20032;-64
2021/11/09 08:02:33;;;;;;;4.53;1.97;;;;;;;-149.78;100.00;50393.22;5064546;28;20040;-64
2021/11/09 08:05:05;;;;;;;3.80;2.13;;;;;;;-149.78;100.00;50377.56;5057768;28;20079;-67
2021/11/09 08:10:32;;;;;;;4.82;1.77;;;;;;;-149.78;100.00;50385.38;5006748;28;20060;-64
2021/11/09 08:12:58;;;;;;;5.72;2.15;;;;;;;-149.78;100.00;50391.25;5047445;28;20645;-67
2021/11/09 08:15:24;;;;;;;5.22;1.55;;;;;;;-149.78;100.00;50422.56;5060067;28;20092;-64
2021/11/09 08:17:49;;;;;;;7.65;1.75;;;;;;;-149.78;100.00;50385.38;5062651;28;20065;-64
2021/11/09 08:20:15;;;;;;;6.13;1.58;;;;;;;-149.78;100.00;50367.78;5057308;28;20037;-63
2021/11/09 08:22:41;;;;;;;11.27;2.03;;;;;;;-149.78;100.00;50408.84;5054916;28;20040;-67
2021/11/09 08:25:07;;;;;;;5.75;1.85;;;;;;;-149.78;100.00;50350.19;5070316;28;20060;-65
2021/11/09 08:27:33;;;;;;;9.50;2.25;;;;;;;-149.78;100.00;50377.56;5066004;28;20132;-67
2021/11/09 08:29:59;;;;;;;3.42;1.50;;;;;;;-149.78;100.00;50375.63;5064685;28;20123;-65
2021/11/09 08:32:26;;;;;;;7.05;2.72;;;;;;;-149.78;100.00;50375.63;5067877;28;20510;-65
2021/11/09 08:34:52;;;;;;;6.47;1.95;;;;;;;-149.78;100.00;50369.75;5070980;28;20025;-65
2021/11/09 08:37:19;;;;;;;5.53;1.73;;;;;;;-149.78;100.00;50377.56;5059977;28;20468;-65
2021/11/09 08:39:45;;;;;;;6.68;2.08;;;;;;;-149.78;100.00;50395.16;5063031;28;20044;-65
2021/11/09 08:44:52;;;;;;;8.95;1.67;;;;;;;-149.78;100.00;50379.53;5061330;28;20037;-64
2021/11/09 08:47:22;;;;;;;4.20;1.88;;;;;;;-149.78;100.00;50397.13;5052360;28;20056;-64
2021/11/09 08:49:50;;;;;;;3.17;1.63;;;;;;;-149.78;100.00;50397.13;5058757;28;20120;-66
2021/11/09 08:52:17;;;;;;;5.00;1.88;;;;;;;-149.78;100.00;50395.16;5064457;28;20042;-64
2021/11/09 08:57:49;;;;;;;3.83;1.70;;;;;;;-149.78;100.00;50373.66;5060694;28;20033;-64
2021/11/09 09:05:26;;;;;;;4.78;1.90;;;;;;;-149.78;100.00;50389.31;5063419;28;20032;-64
2021/11/09 09:07:52;;;;;;;7.45;1.90;;;;;;;-149.78;100.00;50387.34;5065180;28;20020;-66
2021/11/09 09:10:20;;;;;;;3.97;2.10;;;;;;;-149.78;100.00;50379.53;5063168;28;20427;-64
2021/11/09 09:12:46;;;;;;;5.47;1.92;;;;;;;-149.78;100.00;50377.56;5051590;28;20033;-64
2021/11/09 09:15:17;;;;;;;6.18;2.33;;;;;;;-149.78;100.00;50358.00;5052585;28;20060;-66
2021/11/09 09:17:43;;;;;;;5.47;2.13;;;;;;;-149.78;100.00;50334.53;5062566;28;20034;-64
2021/11/09 09:20:25;;;;;;;6.53;2.08;;;;;;;-149.78;100.00;50408.84;5067119;28;20064;-64
2021/11/09 09:25:31;;;;;;;7.25;2.25;;;;;;;-149.78;100.00;50369.75;5057204;28;20033;-64
2021/11/09 09:33:25;;;;;;;9.50;1.80;;;;;;;-149.78;100.00;50385.38;5062558;28;20052;-64
2021/11/09 09:52:52;;;;;;;5.15;2.05;;;;;;;-149.78;100.00;50375.63;5064330;28;20516;-65
2021/11/09 09:55:53;;;;;;;9.85;2.42;;;;;;;-149.78;100.00;50412.78;5065424;28;20064;-64
2021/11/09 09:58:13;;;;;;;12.57;2.70;;;;;;;-149.78;100.00;50340.41;5063454;28;20380;-65
2021/11/09 10:00:41;;;;;;;5.80;2.20;;;;;;;-149.78;100.00;50338.44;5068726;28;20564;-67
2021/11/09 10:03:07;;;;;;;9.43;2.40;;;;;;;-149.78;100.00;50381.47;5071936;28;20121;-63
2021/11/09 10:05:38;;;;;;;9.07;2.13;;;;;;;-149.78;100.00;50375.63;5071519;28;20044;-64
2021/11/09 10:08:18;;;;;;;6.72;2.60;;;;;;;-149.78;100.00;50346.28;5064156;28;20029;-63
2021/11/09 10:10:45;;;;;;;6.10;2.08;;;;;;;-149.78;100.00;50365.84;5058549;28;20025;-64
2021/11/09 10:13:23;;;;;;;5.95;2.28;;;;;;;-149.78;100.00;50361.91;5061680;28;20111;-64
2021/11/09 10:15:56;;;;;;;4.35;2.20;;;;;;;-149.78;100.00;50334.53;5069794;28;20025;-64
2021/11/09 10:18:24;;;;;;;9.23;2.22;;;;;;;-149.78;100.00;50330.63;5069085;28;20027;-64
2021/11/09 10:20:55;;;;;;;4.57;1.90;;;;;;;-149.78;100.00;50361.91;5070803;28;20487;-64
2021/11/09 10:23:26;;;;;;;6.07;1.83;;;;;;;-149.78;100.00;50381.47;5051051;28;20024;-64
2021/11/09 10:25:59;;;;;;;7.05;2.08;;;;;;;-149.78;100.00;50369.75;5069116;28;20052;-64
2021/11/09 10:28:26;;;;;;;;;;;;;;;-149.78;100.00;50328.69;5070343;28;20077;-64
2021/11/09 10:31:04;;;;;;;7.10;1.80;;;;;;;-149.78;100.00;50346.28;5070010;28;20411;-65
2021/11/09 10:33:35;;;;;;;5.85;2.63;;;;;;;-149.78;100.00;50350.19;5070101;28;20024;-64
2021/11/09 10:36:02;;;;;;;6.68;1.90;;;;;;;-149.78;100.00;50336.50;5066335;28;20099;-65
2021/11/09 10:38:32;;;;;;;3.03;1.98;;;;;;;-149.78;100.00;50365.84;5069310;28;20044;-65
2021/11/09 10:41:00;;;;;;;7.35;2.30;;;;;;;-149.78;100.00;50338.44;5065386;28;20104;-65
2021/11/09 10:43:27;;;;;;;6.07;1.90;;;;;;;-149.78;100.00;50330.63;5067721;28;20033;-65
2021/11/09 10:45:53;;;;;;;6.20;1.80;;;;;;;-149.78;100.00;50346.28;5067448;28;20079;-66
2021/11/09 10:48:22;;;;;;;4.30;1.65;;;;;;;-149.78;100.00;50377.56;5071444;28;20369;-65
2021/11/09 10:50:53;;;;;;;3.00;1.90;;;;;;;-149.78;100.00;50369.75;5069476;28;20036;-65
2021/11/09 10:53:39;;;;;;;5.85;1.80;;;;;;;-149.78;100.00;50367.78;5069720;28;20032;-65
2021/11/09 11:06:26;;;;;;;5.90;2.10;;;;;;;-149.78;100.00;50326.72;5061728;28;20041;-64
2021/11/09 11:08:57;;;;;;;7.28;2.20;;;;;;;-149.78;100.00;50332.59;5064506;28;20430;-64
2021/11/09 11:11:26;;;;;;;7.18;2.45;;;;;;;-149.78;100.00;50377.56;5067376;28;20115;-64
2021/11/09 11:13:55;;;;;;;6.20;2.03;;;;;;;-149.78;100.00;50334.53;5063638;28;20033;-65
2021/11/09 11:16:22;;;;;;;8.02;1.90;;;;;;;-149.78;100.00;50301.28;5075868;28;20028;-64
2021/11/09 11:18:53;;;;;;;11.52;2.13;;;;;;;-149.78;100.00;50334.53;5069225;28;20511;-64
2021/11/09 11:21:20;;;;;;;4.07;1.90;;;;;;;-149.78;100.00;50361.91;5064395;28;20048;-64
2021/11/09 11:23:47;;;;;;;9.75;2.10;;;;;;;-149.78;100.00;50326.72;5053569;28;20031;-64
2021/11/09 11:26:14;;;;;;;8.18;2.00;;;;;;;-149.78;100.00;50344.31;5050600;28;20041;-64
2021/11/09 11:28:43;;;;;;;7.55;2.10;;;;;;;-149.78;100.00;50358.00;5060149;28;20120;-64
2021/11/09 11:31:10;;;;;;;5.45;1.60;;;;;;;-149.78;100.00;50350.19;5063595;28;20067;-62
2021/11/09 11:33:36;;;;;;;3.67;1.70;;;;;;;-149.78;100.00;50358.00;5055448;28;20041;-63
2021/11/09 11:36:02;;;;;;;5.32;2.13;;;;;;;-149.78;100.00;50326.72;5068929;28;20146;-63
2021/11/09 11:38:29;;;;;;;6.35;2.10;;;;;;;-149.78;100.00;50389.31;5066397;28;20045;-64
2021/11/09 11:40:57;;;;;;;3.58;1.90;;;;;;;-149.78;100.00;50358.00;5071094;28;20543;-64
2021/11/09 11:43:41;;;;;;;5.13;2.10;;;;;;;-149.78;100.00;50358.00;5070505;28;20079;-65
2021/11/09 11:46:08;;;;;;;11.50;2.30;;;;;;;-149.78;100.00;50342.38;5066201;28;20036;-64
2021/11/09 11:48:59;;;;;;;4.25;1.60;;;;;;;-149.78;100.00;50326.72;5070398;28;20054;-65
2021/11/09 11:51:26;;;;;;;6.85;2.15;;;;;;;-149.78;100.00;50358.00;5066483;28;20044;-64
2021/11/09 11:53:55;;;;;;;6.03;2.22;;;;;;;-149.78;100.00;50307.16;5069636;28;20033;-64
2021/11/09 11:56:45;;;;;;;5.22;1.90;;;;;;;-149.78;100.00;50358.00;5066786;28;20112;-63
2021/11/09 11:59:23;;;;;;;4.95;2.30;;;;;;;-149.78;100.00;50330.63;5052407;28;20045;-65
2021/11/09 12:01:54;;;;;;;3.50;2.00;;;;;;;-149.78;100.00;50330.63;5052700;28;20043;-65
2021/11/09 12:04:41;;;;;;;3.67;1.70;;;;;;;-149.78;100.00;50322.81;5052274;28;20045;-65
2021/11/09 12:07:15;;;;;;;8.38;2.38;;;;;;;-149.78;100.00;50314.97;5051583;28;20025;-64
2021/11/09 12:09:43;;;;;;;5.90;2.28;;;;;;;-149.78;100.00;50340.41;5062080;28;20117;-65
2021/11/09 12:12:18;;;;;;;3.67;2.22;;;;;;;-149.78;100.00;50342.38;5063027;28;20041;-65
2021/11/09 12:14:56;;;;;;;3.40;1.92;;;;;;;-149.78;100.00;50361.91;5068117;28;20036;-64
2021/11/09 12:17:42;;;;;;;7.93;2.78;;;;;;;-149.78;100.00;50330.63;5067917;28;20078;-64
2021/11/09 12:20:09;;;;;;;11.18;3.28;;;;;;;-149.78;100.00;50328.69;5060682;28;20029;-64
2021/11/09 12:22:46;;;;;;;5.85;2.50;;;;;;;-149.78;100.00;50322.81;5055782;28;20463;-64
2021/11/09 12:25:15;;;;;;;4.60;2.35;;;;;;;-149.78;100.00;50334.53;5065397;28;20047;-65
2021/11/09 12:27:51;;;;;;;7.47;2.17;;;;;;;-149.78;100.00;50346.28;5067524;28;20028;-64
2021/11/09 12:30:33;;;;;;;8.52;2.47;;;;;;;-149.78;100.00;50311.06;5068851;28;20028;-64
2021/11/09 12:33:14;;;;;;;5.43;2.22;;;;;;;-149.78;100.00;50336.50;5064370;28;20388;-64
2021/11/09 12:35:43;;;;;;;3.70;2.07;;;;;;;-149.78;100.00;50326.72;5062874;28;20192;-65
2021/11/09 12:38:34;;;;;;;5.30;2.30;;;;;;;-149.78;100.00;50358.00;5076855;28;20416;-64
2021/11/09 12:41:02;;;;;;;7.65;2.20;;;;;;;-149.78;100.00;50322.81;5059430;28;20072;-64
2021/11/09 12:43:28;;;;;;;8.15;2.10;;;;;;;-149.78;100.00;50330.63;5062319;28;20070;-64
2021/11/09 12:46:03;;;;;;;5.38;2.45;;;;;;;-149.78;100.00;50342.38;5063270;28;20400;-64
2021/11/09 12:48:34;;;;;;;2.65;1.70;;;;;;;-149.78;100.00;50350.19;5057470;28;20047;-64
2021/11/09 12:51:04;;;;;;;4.65;2.17;;;;;;;-149.78;100.00;50365.84;5065343;28;20090;-64
2021/11/09 12:53:30;;;;;;;3.80;1.92;;;;;;;-149.78;100.00;50342.38;5055424;28;20059;-63
2021/11/09 12:56:09;;;;;;;4.57;1.98;;;;;;;-149.78;100.00;50330.63;5060004;28;20033;-64
2021/11/09 12:58:50;;;;;;;4.63;2.10;;;;;;;-149.78;100.00;50324.75;5065511;28;20036;-64
2021/11/09 13:09:33;;;;;;;6.38;2.20;;;;;;;-149.78;100.00;50342.38;5065059;28;20043;-64
2021/11/09 13:12:20;;;;;;;7.25;2.40;;;;;;;-149.78;100.00;50332.59;5068529;28;20028;-64
2021/11/09 13:15:00;;;;;;;3.97;2.08;;;;;;;-149.78;100.00;50314.97;5051377;28;20123;-63
2021/11/09 13:17:52;;;;;;;7.63;2.13;;;;;;;-149.78;100.00;50344.31;5058936;28;20025;-63
2021/11/09 13:23:01;;;;;;;5.18;2.03;;;;;;;-149.78;100.00;50326.72;5064272;28;20036;-64
2021/11/09 13:25:37;;;;;;;2.95;1.80;;;;;;;-149.78;100.00;50334.53;5058047;28;20397;-63
2021/11/09 13:28:19;;;;;;;4.07;1.88;;;;;;;-149.78;100.00;50330.63;5067983;28;20047;-64
2021/11/09 13:31:11;;;;;;;3.25;2.20;;;;;;;-149.78;100.00;50314.97;5070223;28;20036;-64
2021/11/09 13:33:42;;;;;;;2.90;1.80;;;;;;;-149.78;100.00;50348.22;5072609;28;20032;-64
2021/11/09 13:36:09;;;;;;;5.82;2.13;;;;;;;-149.78;100.00;50314.97;5071827;28;20029;-65
2021/11/09 13:38:38;;;;;;;4.18;1.80;;;;;;;-149.78;100.00;50311.06;5072344;28;20033;-64
2021/11/09 13:41:15;;;;;;;7.03;1.95;;;;;;;-149.78;100.00;50318.91;5071187;28;20037;-64
2021/11/09 13:43:46;;;;;;;4.82;1.70;;;;;;;-149.78;100.00;50322.81;5066089;28;20102;-64